sensor_id;sensor_type;location;lat;lon;timestamp;P1;durP1;ratioP1;P2;durP2;ratioP2
45909;SDS011;31622;55.416;37.840;2023-06-22T00:01:53;8.32;;;6.40;;
45909;SDS011;31622;55.416;37.840;2023-06-22T00:04:18;8.30;;;6.43;;
45909;SDS011;31622;55.416;37.840;2023-06-22T00:06:44;10.10;;;6.93;;
45909;SDS011;31622;55.416;37.840;2023-06-22T00:09:10;8.52;;;5.78;;
45909;SDS011;31622;55.416;37.840;2023-06-22T00:11:36;10.05;;;6.68;;
45909;SDS011;31622;55.416;37.840;2023-06-22T00:14:02;10.32;;;6.10;;
45909;SDS011;31622;55.416;37.840;2023-06-22T00:16:28;12.30;;;7.65;;
45909;SDS011;31622;55.416;37.840;2023-06-22T00:18:54;8.55;;;6.22;;
45909;SDS011;31622;55.416;37.840;2023-06-22T00:21:19;8.57;;;6.65;;
45909;SDS011;31622;55.416;37.840;2023-06-22T00:23:46;10.35;;;6.43;;
45909;SDS011;31622;55.416;37.840;2023-06-22T00:26:12;10.73;;;6.72;;
45909;SDS011;31622;55.416;37.840;2023-06-22T00:28:38;8.30;;;6.13;;
45909;SDS011;31622;55.416;37.840;2023-06-22T00:31:04;9.20;;;5.88;;
45909;SDS011;31622;55.416;37.840;2023-06-22T00:33:30;9.88;;;6.80;;
45909;SDS011;31622;55.416;37.840;2023-06-22T00:35:56;9.38;;;6.45;;
45909;SDS011;31622;55.416;37.840;2023-06-22T00:38:22;10.60;;;6.40;;
45909;SDS011;31622;55.416;37.840;2023-06-22T00:40:48;9.80;;;6.68;;
45909;SDS011;31622;55.416;37.840;2023-06-22T00:43:13;9.68;;;6.38;;
45909;SDS011;31622;55.416;37.840;2023-06-22T00:45:39;8.23;;;6.10;;
45909;SDS011;31622;55.416;37.840;2023-06-22T00:48:05;10.27;;;5.68;;
45909;SDS011;31622;55.416;37.840;2023-06-22T00:50:32;11.00;;;6.18;;
45909;SDS011;31622;55.416;37.840;2023-06-22T00:53:00;12.18;;;6.15;;
45909;SDS011;31622;55.416;37.840;2023-06-22T00:55:33;9.70;;;6.63;;
45909;SDS011;31622;55.416;37.840;2023-06-22T00:58:02;8.25;;;5.60;;
45909;SDS011;31622;55.416;37.840;2023-06-22T01:00:30;8.82;;;6.13;;
45909;SDS011;31622;55.416;37.840;2023-06-22T01:02:59;9.18;;;5.80;;
45909;SDS011;31622;55.416;37.840;2023-06-22T01:05:26;7.90;;;5.70;;
45909;SDS011;31622;55.416;37.840;2023-06-22T01:13:01;7.90;;;5.57;;
45909;SDS011;31622;55.416;37.840;2023-06-22T01:15:29;7.45;;;5.32;;
45909;SDS011;31622;55.416;37.840;2023-06-22T01:17:58;7.40;;;5.10;;
45909;SDS011;31622;55.416;37.840;2023-06-22T01:20:25;9.85;;;5.50;;
45909;SDS011;31622;55.416;37.840;2023-06-22T01:23:17;7.60;;;5.25;;
45909;SDS011;31622;55.416;37.840;2023-06-22T01:26:02;8.38;;;5.57;;
45909;SDS011;31622;55.416;37.840;2023-06-22T01:28:48;6.90;;;4.88;;
45909;SDS011;31622;55.416;37.840;2023-06-22T01:31:16;6.85;;;5.15;;
45909;SDS011;31622;55.416;37.840;2023-06-22T01:33:45;12.02;;;5.40;;
45909;SDS011;31622;55.416;37.840;2023-06-22T01:36:14;10.40;;;5.22;;
45909;SDS011;31622;55.416;37.840;2023-06-22T01:38:40;8.70;;;5.50;;
45909;SDS011;31622;55.416;37.840;2023-06-22T01:41:07;9.02;;;5.30;;
45909;SDS011;31622;55.416;37.840;2023-06-22T01:43:33;9.10;;;5.68;;
45909;SDS011;31622;55.416;37.840;2023-06-22T01:46:01;8.90;;;5.32;;
45909;SDS011;31622;55.416;37.840;2023-06-22T01:48:27;9.77;;;5.22;;
45909;SDS011;31622;55.416;37.840;2023-06-22T01:50:54;10.63;;;5.97;;
45909;SDS011;31622;55.416;37.840;2023-06-22T01:53:23;8.95;;;5.65;;
45909;SDS011;31622;55.416;37.840;2023-06-22T01:55:51;9.45;;;5.45;;
45909;SDS011;31622;55.416;37.840;2023-06-22T01:58:16;9.15;;;5.30;;
45909;SDS011;31622;55.416;37.840;2023-06-22T02:00:44;11.70;;;5.50;;
45909;SDS011;31622;55.416;37.840;2023-06-22T02:03:15;9.15;;;5.72;;
45909;SDS011;31622;55.416;37.840;2023-06-22T02:05:52;9.30;;;5.60;;
45909;SDS011;31622;55.416;37.840;2023-06-22T02:08:22;8.50;;;5.35;;
45909;SDS011;31622;55.416;37.840;2023-06-22T02:10:50;10.05;;;5.88;;
45909;SDS011;31622;55.416;37.840;2023-06-22T02:13:17;9.18;;;5.90;;
45909;SDS011;31622;55.416;37.840;2023-06-22T02:15:44;9.18;;;5.63;;
45909;SDS011;31622;55.416;37.840;2023-06-22T02:18:11;7.32;;;5.60;;
45909;SDS011;31622;55.416;37.840;2023-06-22T02:20:37;10.32;;;5.60;;
45909;SDS011;31622;55.416;37.840;2023-06-22T02:23:04;9.43;;;5.40;;
45909;SDS011;31622;55.416;37.840;2023-06-22T02:25:34;10.43;;;5.65;;
45909;SDS011;31622;55.416;37.840;2023-06-22T02:28:00;10.20;;;5.45;;
45909;SDS011;31622;55.416;37.840;2023-06-22T02:30:25;11.13;;;5.80;;
45909;SDS011;31622;55.416;37.840;2023-06-22T02:32:51;9.27;;;6.00;;
45909;SDS011;31622;55.416;37.840;2023-06-22T02:37:51;9.10;;;5.80;;
45909;SDS011;31622;55.416;37.840;2023-06-22T02:40:17;9.85;;;5.40;;
45909;SDS011;31622;55.416;37.840;2023-06-22T02:42:43;9.85;;;5.22;;
45909;SDS011;31622;55.416;37.840;2023-06-22T02:45:08;6.50;;;4.90;;
45909;SDS011;31622;55.416;37.840;2023-06-22T02:47:34;9.55;;;5.47;;
45909;SDS011;31622;55.416;37.840;2023-06-22T02:50:01;7.13;;;5.13;;
45909;SDS011;31622;55.416;37.840;2023-06-22T02:52:30;9.45;;;5.47;;
45909;SDS011;31622;55.416;37.840;2023-06-22T02:54:56;7.38;;;5.45;;
45909;SDS011;31622;55.416;37.840;2023-06-22T02:57:21;9.73;;;6.07;;
45909;SDS011;31622;55.416;37.840;2023-06-22T02:59:47;8.85;;;5.32;;
45909;SDS011;31622;55.416;37.840;2023-06-22T03:02:13;7.88;;;5.28;;
45909;SDS011;31622;55.416;37.840;2023-06-22T03:04:39;8.02;;;5.70;;
45909;SDS011;31622;55.416;37.840;2023-06-22T03:07:05;7.78;;;5.40;;
45909;SDS011;31622;55.416;37.840;2023-06-22T03:09:32;8.25;;;5.68;;
45909;SDS011;31622;55.416;37.840;2023-06-22T03:11:58;8.07;;;5.30;;
45909;SDS011;31622;55.416;37.840;2023-06-22T03:14:29;9.60;;;5.28;;
45909;SDS011;31622;55.416;37.840;2023-06-22T03:16:55;9.50;;;5.20;;
45909;SDS011;31622;55.416;37.840;2023-06-22T03:19:26;8.03;;;5.20;;
45909;SDS011;31622;55.416;37.840;2023-06-22T03:21:54;6.97;;;5.13;;
45909;SDS011;31622;55.416;37.840;2023-06-22T03:24:20;9.73;;;5.25;;
45909;SDS011;31622;55.416;37.840;2023-06-22T03:26:46;7.80;;;4.60;;
45909;SDS011;31622;55.416;37.840;2023-06-22T03:29:12;9.57;;;5.60;;
45909;SDS011;31622;55.416;37.840;2023-06-22T03:31:37;8.20;;;5.30;;
45909;SDS011;31622;55.416;37.840;2023-06-22T03:34:05;8.27;;;5.18;;
45909;SDS011;31622;55.416;37.840;2023-06-22T03:36:31;6.88;;;4.90;;
45909;SDS011;31622;55.416;37.840;2023-06-22T03:38:56;8.07;;;5.03;;
45909;SDS011;31622;55.416;37.840;2023-06-22T03:41:23;8.07;;;5.22;;
45909;SDS011;31622;55.416;37.840;2023-06-22T03:43:49;8.70;;;5.45;;
45909;SDS011;31622;55.416;37.840;2023-06-22T03:46:14;7.50;;;5.47;;
45909;SDS011;31622;55.416;37.840;2023-06-22T03:48:41;11.27;;;4.93;;
45909;SDS011;31622;55.416;37.840;2023-06-22T03:51:07;8.50;;;5.85;;
45909;SDS011;31622;55.416;37.840;2023-06-22T03:53:33;9.88;;;5.60;;
45909;SDS011;31622;55.416;37.840;2023-06-22T03:55:58;9.32;;;5.35;;
45909;SDS011;31622;55.416;37.840;2023-06-22T03:58:24;6.97;;;4.93;;
45909;SDS011;31622;55.416;37.840;2023-06-22T04:00:50;9.05;;;5.68;;
45909;SDS011;31622;55.416;37.840;2023-06-22T04:03:17;8.77;;;5.20;;
45909;SDS011;31622;55.416;37.840;2023-06-22T04:05:46;9.30;;;5.30;;
45909;SDS011;31622;55.416;37.840;2023-06-22T04:08:12;7.57;;;4.70;;
45909;SDS011;31622;55.416;37.840;2023-06-22T04:10:39;9.45;;;5.72;;
45909;SDS011;31622;55.416;37.840;2023-06-22T04:13:04;6.10;;;4.30;;
45909;SDS011;31622;55.416;37.840;2023-06-22T04:15:30;7.72;;;4.88;;
45909;SDS011;31622;55.416;37.840;2023-06-22T04:17:56;11.35;;;4.75;;
45909;SDS011;31622;55.416;37.840;2023-06-22T04:20:22;7.10;;;4.60;;
45909;SDS011;31622;55.416;37.840;2023-06-22T04:22:51;7.97;;;5.10;;
45909;SDS011;31622;55.416;37.840;2023-06-22T04:25:17;8.35;;;5.13;;
45909;SDS011;31622;55.416;37.840;2023-06-22T04:27:43;11.13;;;5.70;;
45909;SDS011;31622;55.416;37.840;2023-06-22T04:30:10;14.07;;;7.10;;
45909;SDS011;31622;55.416;37.840;2023-06-22T04:32:36;14.07;;;8.80;;
45909;SDS011;31622;55.416;37.840;2023-06-22T04:35:04;16.23;;;8.77;;
45909;SDS011;31622;55.416;37.840;2023-06-22T04:37:31;14.52;;;8.25;;
45909;SDS011;31622;55.416;37.840;2023-06-22T04:39:57;10.90;;;6.40;;
45909;SDS011;31622;55.416;37.840;2023-06-22T04:42:25;12.15;;;6.70;;
45909;SDS011;31622;55.416;37.840;2023-06-22T04:44:51;11.15;;;6.30;;
45909;SDS011;31622;55.416;37.840;2023-06-22T04:47:17;14.43;;;7.32;;
45909;SDS011;31622;55.416;37.840;2023-06-22T04:49:42;9.98;;;6.25;;
45909;SDS011;31622;55.416;37.840;2023-06-22T04:52:09;12.63;;;6.85;;
45909;SDS011;31622;55.416;37.840;2023-06-22T04:54:37;9.10;;;5.43;;
45909;SDS011;31622;55.416;37.840;2023-06-22T04:57:04;10.32;;;5.40;;
45909;SDS011;31622;55.416;37.840;2023-06-22T04:59:34;9.87;;;4.90;;
45909;SDS011;31622;55.416;37.840;2023-06-22T05:02:01;9.07;;;5.35;;
45909;SDS011;31622;55.416;37.840;2023-06-22T05:04:28;8.80;;;5.60;;
45909;SDS011;31622;55.416;37.840;2023-06-22T05:06:58;6.55;;;4.55;;
45909;SDS011;31622;55.416;37.840;2023-06-22T05:09:25;9.57;;;4.40;;
45909;SDS011;31622;55.416;37.840;2023-06-22T05:11:51;7.43;;;4.78;;
45909;SDS011;31622;55.416;37.840;2023-06-22T05:14:17;7.40;;;4.10;;
45909;SDS011;31622;55.416;37.840;2023-06-22T05:16:43;7.75;;;4.70;;
45909;SDS011;31622;55.416;37.840;2023-06-22T05:19:09;6.80;;;4.00;;
45909;SDS011;31622;55.416;37.840;2023-06-22T05:21:35;5.50;;;3.80;;
45909;SDS011;31622;55.416;37.840;2023-06-22T05:24:01;7.75;;;3.92;;
45909;SDS011;31622;55.416;37.840;2023-06-22T05:26:31;6.47;;;3.53;;
45909;SDS011;31622;55.416;37.840;2023-06-22T05:28:58;7.80;;;3.95;;
45909;SDS011;31622;55.416;37.840;2023-06-22T05:31:25;6.72;;;3.75;;
45909;SDS011;31622;55.416;37.840;2023-06-22T05:33:52;4.95;;;3.50;;
45909;SDS011;31622;55.416;37.840;2023-06-22T05:36:18;4.88;;;3.33;;
45909;SDS011;31622;55.416;37.840;2023-06-22T05:38:50;6.97;;;4.40;;
45909;SDS011;31622;55.416;37.840;2023-06-22T05:41:16;9.15;;;3.78;;
45909;SDS011;31622;55.416;37.840;2023-06-22T05:43:42;8.13;;;4.20;;
45909;SDS011;31622;55.416;37.840;2023-06-22T05:46:07;7.63;;;4.97;;
45909;SDS011;31622;55.416;37.840;2023-06-22T05:48:33;8.45;;;3.60;;
45909;SDS011;31622;55.416;37.840;2023-06-22T05:50:59;5.05;;;3.47;;
45909;SDS011;31622;55.416;37.840;2023-06-22T05:53:24;7.10;;;3.75;;
45909;SDS011;31622;55.416;37.840;2023-06-22T05:55:50;4.38;;;3.38;;
45909;SDS011;31622;55.416;37.840;2023-06-22T05:58:16;4.78;;;3.13;;
45909;SDS011;31622;55.416;37.840;2023-06-22T06:00:41;5.03;;;3.22;;
45909;SDS011;31622;55.416;37.840;2023-06-22T06:03:08;5.80;;;3.20;;
45909;SDS011;31622;55.416;37.840;2023-06-22T06:05:35;6.10;;;3.35;;
45909;SDS011;31622;55.416;37.840;2023-06-22T06:08:02;5.47;;;3.30;;
45909;SDS011;31622;55.416;37.840;2023-06-22T06:10:33;7.13;;;3.05;;
45909;SDS011;31622;55.416;37.840;2023-06-22T06:12:59;5.18;;;3.00;;
45909;SDS011;31622;55.416;37.840;2023-06-22T06:15:30;4.78;;;3.20;;
45909;SDS011;31622;55.416;37.840;2023-06-22T06:17:56;4.53;;;3.10;;
45909;SDS011;31622;55.416;37.840;2023-06-22T06:20:22;4.45;;;2.85;;
45909;SDS011;31622;55.416;37.840;2023-06-22T06:22:49;4.88;;;3.33;;
45909;SDS011;31622;55.416;37.840;2023-06-22T06:25:15;6.00;;;2.67;;
45909;SDS011;31622;55.416;37.840;2023-06-22T06:27:44;4.40;;;2.85;;
45909;SDS011;31622;55.416;37.840;2023-06-22T06:30:11;5.60;;;3.47;;
45909;SDS011;31622;55.416;37.840;2023-06-22T06:32:37;6.03;;;3.47;;
45909;SDS011;31622;55.416;37.840;2023-06-22T06:35:08;5.72;;;2.80;;
45909;SDS011;31622;55.416;37.840;2023-06-22T06:37:39;5.18;;;2.67;;
45909;SDS011;31622;55.416;37.840;2023-06-22T06:42:53;4.75;;;2.88;;
45909;SDS011;31622;55.416;37.840;2023-06-22T06:45:21;7.88;;;2.97;;
45909;SDS011;31622;55.416;37.840;2023-06-22T06:47:48;6.25;;;2.88;;
45909;SDS011;31622;55.416;37.840;2023-06-22T06:50:15;4.90;;;2.80;;
45909;SDS011;31622;55.416;37.840;2023-06-22T06:52:41;25.88;;;3.65;;
45909;SDS011;31622;55.416;37.840;2023-06-22T06:55:07;6.20;;;3.50;;
45909;SDS011;31622;55.416;37.840;2023-06-22T06:57:37;7.65;;;2.95;;
45909;SDS011;31622;55.416;37.840;2023-06-22T07:00:04;5.07;;;3.20;;
45909;SDS011;31622;55.416;37.840;2023-06-22T07:02:41;8.23;;;3.20;;
45909;SDS011;31622;55.416;37.840;2023-06-22T07:05:08;4.80;;;3.28;;
45909;SDS011;31622;55.416;37.840;2023-06-22T07:07:35;5.80;;;3.10;;
45909;SDS011;31622;55.416;37.840;2023-06-22T07:10:01;5.05;;;3.25;;
45909;SDS011;31622;55.416;37.840;2023-06-22T07:12:27;5.10;;;3.65;;
45909;SDS011;31622;55.416;37.840;2023-06-22T07:14:52;5.63;;;3.78;;
45909;SDS011;31622;55.416;37.840;2023-06-22T07:17:18;8.48;;;3.28;;
45909;SDS011;31622;55.416;37.840;2023-06-22T07:19:45;4.38;;;3.28;;
45909;SDS011;31622;55.416;37.840;2023-06-22T07:22:11;6.05;;;3.35;;
45909;SDS011;31622;55.416;37.840;2023-06-22T07:24:36;6.07;;;3.50;;
45909;SDS011;31622;55.416;37.840;2023-06-22T07:27:02;4.53;;;3.05;;
45909;SDS011;31622;55.416;37.840;2023-06-22T07:29:30;4.72;;;3.20;;
45909;SDS011;31622;55.416;37.840;2023-06-22T07:31:57;5.95;;;3.55;;
45909;SDS011;31622;55.416;37.840;2023-06-22T07:34:22;5.13;;;2.95;;
45909;SDS011;31622;55.416;37.840;2023-06-22T07:36:48;6.68;;;3.45;;
45909;SDS011;31622;55.416;37.840;2023-06-22T07:39:14;7.60;;;3.00;;
45909;SDS011;31622;55.416;37.840;2023-06-22T07:41:40;4.50;;;2.97;;
45909;SDS011;31622;55.416;37.840;2023-06-22T07:44:08;7.35;;;3.10;;
45909;SDS011;31622;55.416;37.840;2023-06-22T07:46:34;5.55;;;3.15;;
45909;SDS011;31622;55.416;37.840;2023-06-22T07:48:59;7.15;;;3.50;;
45909;SDS011;31622;55.416;37.840;2023-06-22T07:51:26;4.95;;;2.75;;
45909;SDS011;31622;55.416;37.840;2023-06-22T07:53:52;7.65;;;3.47;;
45909;SDS011;31622;55.416;37.840;2023-06-22T07:56:17;32.97;;;4.60;;
45909;SDS011;31622;55.416;37.840;2023-06-22T07:58:45;23.38;;;4.45;;
45909;SDS011;31622;55.416;37.840;2023-06-22T08:01:12;11.80;;;3.35;;
45909;SDS011;31622;55.416;37.840;2023-06-22T08:03:38;12.93;;;4.00;;
45909;SDS011;31622;55.416;37.840;2023-06-22T08:06:04;7.75;;;3.30;;
45909;SDS011;31622;55.416;37.840;2023-06-22T08:08:31;6.07;;;3.03;;
45909;SDS011;31622;55.416;37.840;2023-06-22T08:10:56;3.67;;;3.10;;
45909;SDS011;31622;55.416;37.840;2023-06-22T08:13:22;5.93;;;3.33;;
45909;SDS011;31622;55.416;37.840;2023-06-22T08:15:48;5.25;;;2.95;;
45909;SDS011;31622;55.416;37.840;2023-06-22T08:18:14;5.10;;;3.10;;
45909;SDS011;31622;55.416;37.840;2023-06-22T08:20:41;4.30;;;3.20;;
45909;SDS011;31622;55.416;37.840;2023-06-22T08:23:06;3.42;;;2.70;;
45909;SDS011;31622;55.416;37.840;2023-06-22T08:25:32;7.93;;;3.50;;
45909;SDS011;31622;55.416;37.840;2023-06-22T08:27:59;5.88;;;3.30;;
45909;SDS011;31622;55.416;37.840;2023-06-22T08:30:25;4.70;;;2.92;;
45909;SDS011;31622;55.416;37.840;2023-06-22T08:32:51;3.90;;;2.80;;
45909;SDS011;31622;55.416;37.840;2023-06-22T08:35:17;5.05;;;3.30;;
45909;SDS011;31622;55.416;37.840;2023-06-22T08:37:43;4.63;;;2.88;;
45909;SDS011;31622;55.416;37.840;2023-06-22T08:40:15;4.30;;;2.70;;
45909;SDS011;31622;55.416;37.840;2023-06-22T08:42:41;6.32;;;3.33;;
45909;SDS011;31622;55.416;37.840;2023-06-22T08:45:07;4.43;;;3.00;;
45909;SDS011;31622;55.416;37.840;2023-06-22T08:47:33;4.95;;;3.05;;
45909;SDS011;31622;55.416;37.840;2023-06-22T08:49:58;5.13;;;3.70;;
45909;SDS011;31622;55.416;37.840;2023-06-22T08:52:24;6.28;;;3.80;;
45909;SDS011;31622;55.416;37.840;2023-06-22T08:54:50;6.63;;;2.92;;
45909;SDS011;31622;55.416;37.840;2023-06-22T08:57:16;3.67;;;2.97;;
45909;SDS011;31622;55.416;37.840;2023-06-22T08:59:42;7.15;;;3.25;;
45909;SDS011;31622;55.416;37.840;2023-06-22T09:02:08;7.55;;;3.30;;
45909;SDS011;31622;55.416;37.840;2023-06-22T09:04:34;4.47;;;2.95;;
45909;SDS011;31622;55.416;37.840;2023-06-22T09:07:01;5.88;;;3.25;;
45909;SDS011;31622;55.416;37.840;2023-06-22T09:09:26;4.75;;;3.10;;
45909;SDS011;31622;55.416;37.840;2023-06-22T09:11:52;7.93;;;3.25;;
45909;SDS011;31622;55.416;37.840;2023-06-22T09:14:18;4.10;;;3.10;;
45909;SDS011;31622;55.416;37.840;2023-06-22T09:16:43;5.57;;;3.45;;
45909;SDS011;31622;55.416;37.840;2023-06-22T09:19:09;4.70;;;3.10;;
45909;SDS011;31622;55.416;37.840;2023-06-22T09:21:35;5.25;;;3.20;;
45909;SDS011;31622;55.416;37.840;2023-06-22T09:24:01;4.88;;;3.10;;
45909;SDS011;31622;55.416;37.840;2023-06-22T09:26:27;5.07;;;3.03;;
45909;SDS011;31622;55.416;37.840;2023-06-22T09:28:53;4.88;;;3.67;;
45909;SDS011;31622;55.416;37.840;2023-06-22T09:31:19;5.28;;;3.13;;
45909;SDS011;31622;55.416;37.840;2023-06-22T09:33:53;5.30;;;3.30;;
45909;SDS011;31622;55.416;37.840;2023-06-22T09:36:22;8.13;;;3.50;;
45909;SDS011;31622;55.416;37.840;2023-06-22T09:38:48;7.25;;;3.30;;
45909;SDS011;31622;55.416;37.840;2023-06-22T09:41:14;4.93;;;2.90;;
45909;SDS011;31622;55.416;37.840;2023-06-22T09:43:39;3.83;;;3.08;;
45909;SDS011;31622;55.416;37.840;2023-06-22T09:46:05;6.70;;;3.20;;
45909;SDS011;31622;55.416;37.840;2023-06-22T09:48:32;5.10;;;2.83;;
45909;SDS011;31622;55.416;37.840;2023-06-22T09:50:58;4.28;;;3.10;;
45909;SDS011;31622;55.416;37.840;2023-06-22T09:53:23;5.63;;;3.05;;
45909;SDS011;31622;55.416;37.840;2023-06-22T09:55:49;5.47;;;2.95;;
45909;SDS011;31622;55.416;37.840;2023-06-22T09:58:14;4.38;;;3.35;;
45909;SDS011;31622;55.416;37.840;2023-06-22T10:00:40;5.70;;;3.17;;
45909;SDS011;31622;55.416;37.840;2023-06-22T10:03:06;4.97;;;3.30;;
45909;SDS011;31622;55.416;37.840;2023-06-22T10:05:32;4.32;;;3.42;;
45909;SDS011;31622;55.416;37.840;2023-06-22T10:07:58;4.78;;;3.10;;
45909;SDS011;31622;55.416;37.840;2023-06-22T10:10:24;5.53;;;3.50;;
45909;SDS011;31622;55.416;37.840;2023-06-22T10:12:56;5.13;;;3.47;;
45909;SDS011;31622;55.416;37.840;2023-06-22T10:15:23;4.43;;;2.90;;
45909;SDS011;31622;55.416;37.840;2023-06-22T10:17:49;4.55;;;3.30;;
45909;SDS011;31622;55.416;37.840;2023-06-22T10:20:14;6.05;;;3.75;;
45909;SDS011;31622;55.416;37.840;2023-06-22T10:22:41;4.88;;;3.17;;
45909;SDS011;31622;55.416;37.840;2023-06-22T10:25:08;4.63;;;3.20;;
45909;SDS011;31622;55.416;37.840;2023-06-22T10:27:34;8.18;;;3.13;;
45909;SDS011;31622;55.416;37.840;2023-06-22T10:30:00;5.22;;;3.35;;
45909;SDS011;31622;55.416;37.840;2023-06-22T10:32:26;5.68;;;3.60;;
45909;SDS011;31622;55.416;37.840;2023-06-22T10:34:53;7.63;;;3.60;;
45909;SDS011;31622;55.416;37.840;2023-06-22T10:37:19;7.10;;;3.67;;
45909;SDS011;31622;55.416;37.840;2023-06-22T10:39:45;5.32;;;3.45;;
45909;SDS011;31622;55.416;37.840;2023-06-22T10:42:11;5.43;;;3.42;;
45909;SDS011;31622;55.416;37.840;2023-06-22T10:44:37;8.50;;;3.90;;
45909;SDS011;31622;55.416;37.840;2023-06-22T10:47:04;5.47;;;3.85;;
45909;SDS011;31622;55.416;37.840;2023-06-22T10:49:30;9.25;;;3.70;;
45909;SDS011;31622;55.416;37.840;2023-06-22T10:51:55;5.75;;;3.50;;
45909;SDS011;31622;55.416;37.840;2023-06-22T10:54:21;6.32;;;3.47;;
45909;SDS011;31622;55.416;37.840;2023-06-22T10:56:47;6.30;;;3.60;;
45909;SDS011;31622;55.416;37.840;2023-06-22T10:59:12;5.00;;;3.53;;
45909;SDS011;31622;55.416;37.840;2023-06-22T11:01:38;6.78;;;3.53;;
45909;SDS011;31622;55.416;37.840;2023-06-22T11:04:04;6.43;;;3.60;;
45909;SDS011;31622;55.416;37.840;2023-06-22T11:06:29;7.07;;;3.70;;
45909;SDS011;31622;55.416;37.840;2023-06-22T11:08:55;5.15;;;3.85;;
45909;SDS011;31622;55.416;37.840;2023-06-22T11:11:21;5.28;;;3.17;;
45909;SDS011;31622;55.416;37.840;2023-06-22T11:13:46;7.18;;;3.60;;
45909;SDS011;31622;55.416;37.840;2023-06-22T11:16:12;5.45;;;3.85;;
45909;SDS011;31622;55.416;37.840;2023-06-22T11:18:37;5.13;;;3.70;;
45909;SDS011;31622;55.416;37.840;2023-06-22T11:21:03;4.38;;;3.38;;
45909;SDS011;31622;55.416;37.840;2023-06-22T11:23:29;5.90;;;3.58;;
45909;SDS011;31622;55.416;37.840;2023-06-22T11:25:55;7.32;;;3.35;;
45909;SDS011;31622;55.416;37.840;2023-06-22T11:28:20;6.05;;;3.80;;
45909;SDS011;31622;55.416;37.840;2023-06-22T11:30:46;5.13;;;3.33;;
45909;SDS011;31622;55.416;37.840;2023-06-22T11:33:12;6.47;;;3.50;;
45909;SDS011;31622;55.416;37.840;2023-06-22T11:35:37;5.72;;;3.88;;
45909;SDS011;31622;55.416;37.840;2023-06-22T11:38:03;5.15;;;3.78;;
45909;SDS011;31622;55.416;37.840;2023-06-22T11:40:30;5.20;;;3.55;;
45909;SDS011;31622;55.416;37.840;2023-06-22T11:42:56;4.85;;;3.53;;
45909;SDS011;31622;55.416;37.840;2023-06-22T11:45:21;5.00;;;3.67;;
45909;SDS011;31622;55.416;37.840;2023-06-22T11:47:47;5.80;;;3.22;;
45909;SDS011;31622;55.416;37.840;2023-06-22T11:50:13;4.65;;;3.70;;
45909;SDS011;31622;55.416;37.840;2023-06-22T11:52:38;7.00;;;3.80;;
45909;SDS011;31622;55.416;37.840;2023-06-22T11:55:04;6.20;;;4.07;;
45909;SDS011;31622;55.416;37.840;2023-06-22T11:57:35;6.82;;;3.42;;
45909;SDS011;31622;55.416;37.840;2023-06-22T12:00:05;5.70;;;3.50;;
45909;SDS011;31622;55.416;37.840;2023-06-22T12:02:39;6.10;;;3.38;;
45909;SDS011;31622;55.416;37.840;2023-06-22T12:05:04;5.20;;;3.35;;
45909;SDS011;31622;55.416;37.840;2023-06-22T12:07:30;4.72;;;3.25;;
45909;SDS011;31622;55.416;37.840;2023-06-22T12:09:56;4.22;;;3.20;;
45909;SDS011;31622;55.416;37.840;2023-06-22T12:12:22;7.45;;;3.60;;
45909;SDS011;31622;55.416;37.840;2023-06-22T12:14:48;4.28;;;3.50;;
45909;SDS011;31622;55.416;37.840;2023-06-22T12:17:13;5.63;;;3.50;;
45909;SDS011;31622;55.416;37.840;2023-06-22T12:19:39;4.85;;;3.80;;
45909;SDS011;31622;55.416;37.840;2023-06-22T12:22:05;4.97;;;3.45;;
45909;SDS011;31622;55.416;37.840;2023-06-22T12:24:30;8.32;;;3.55;;
45909;SDS011;31622;55.416;37.840;2023-06-22T12:26:56;5.53;;;3.38;;
45909;SDS011;31622;55.416;37.840;2023-06-22T12:29:21;7.45;;;4.20;;
45909;SDS011;31622;55.416;37.840;2023-06-22T12:31:47;5.40;;;3.42;;
45909;SDS011;31622;55.416;37.840;2023-06-22T12:34:13;4.85;;;3.55;;
45909;SDS011;31622;55.416;37.840;2023-06-22T12:36:38;6.05;;;4.20;;
45909;SDS011;31622;55.416;37.840;2023-06-22T12:39:04;6.57;;;4.85;;
45909;SDS011;31622;55.416;37.840;2023-06-22T12:41:30;6.15;;;4.57;;
45909;SDS011;31622;55.416;37.840;2023-06-22T12:43:55;6.25;;;4.30;;
45909;SDS011;31622;55.416;37.840;2023-06-22T12:46:21;5.95;;;4.60;;
45909;SDS011;31622;55.416;37.840;2023-06-22T12:48:47;4.75;;;4.03;;
45909;SDS011;31622;55.416;37.840;2023-06-22T12:51:19;4.20;;;3.80;;
45909;SDS011;31622;55.416;37.840;2023-06-22T12:53:46;5.90;;;4.30;;
45909;SDS011;31622;55.416;37.840;2023-06-22T12:56:12;4.25;;;3.75;;
45909;SDS011;31622;55.416;37.840;2023-06-22T12:58:38;6.10;;;3.80;;
45909;SDS011;31622;55.416;37.840;2023-06-22T13:01:03;6.28;;;4.10;;
45909;SDS011;31622;55.416;37.840;2023-06-22T13:03:29;6.97;;;4.35;;
45909;SDS011;31622;55.416;37.840;2023-06-22T13:05:54;6.18;;;3.80;;
45909;SDS011;31622;55.416;37.840;2023-06-22T13:08:20;9.90;;;4.38;;
45909;SDS011;31622;55.416;37.840;2023-06-22T13:10:46;5.68;;;4.32;;
45909;SDS011;31622;55.416;37.840;2023-06-22T13:13:12;4.88;;;3.80;;
45909;SDS011;31622;55.416;37.840;2023-06-22T13:15:37;8.18;;;3.70;;
45909;SDS011;31622;55.416;37.840;2023-06-22T13:18:03;4.82;;;3.83;;
45909;SDS011;31622;55.416;37.840;2023-06-22T13:20:29;4.65;;;3.35;;
45909;SDS011;31622;55.416;37.840;2023-06-22T13:22:55;5.68;;;4.30;;
45909;SDS011;31622;55.416;37.840;2023-06-22T13:25:21;6.85;;;4.57;;
45909;SDS011;31622;55.416;37.840;2023-06-22T13:27:49;8.25;;;4.22;;
45909;SDS011;31622;55.416;37.840;2023-06-22T13:30:14;8.85;;;4.45;;
45909;SDS011;31622;55.416;37.840;2023-06-22T13:32:40;7.93;;;4.60;;
45909;SDS011;31622;55.416;37.840;2023-06-22T13:35:09;6.90;;;4.05;;
45909;SDS011;31622;55.416;37.840;2023-06-22T13:37:36;9.00;;;4.43;;
45909;SDS011;31622;55.416;37.840;2023-06-22T13:40:02;6.38;;;4.10;;
45909;SDS011;31622;55.416;37.840;2023-06-22T13:42:30;4.97;;;3.42;;
45909;SDS011;31622;55.416;37.840;2023-06-22T13:44:56;7.05;;;4.20;;
45909;SDS011;31622;55.416;37.840;2023-06-22T13:47:22;6.20;;;4.15;;
45909;SDS011;31622;55.416;37.840;2023-06-22T13:49:47;6.68;;;3.72;;
45909;SDS011;31622;55.416;37.840;2023-06-22T13:52:13;4.93;;;3.60;;
45909;SDS011;31622;55.416;37.840;2023-06-22T13:54:39;8.23;;;4.28;;
45909;SDS011;31622;55.416;37.840;2023-06-22T13:57:04;4.32;;;3.70;;
45909;SDS011;31622;55.416;37.840;2023-06-22T13:59:30;5.07;;;4.10;;
45909;SDS011;31622;55.416;37.840;2023-06-22T14:01:56;6.22;;;4.50;;
45909;SDS011;31622;55.416;37.840;2023-06-22T14:04:25;7.95;;;4.57;;
45909;SDS011;31622;55.416;37.840;2023-06-22T14:06:50;9.30;;;6.43;;
45909;SDS011;31622;55.416;37.840;2023-06-22T14:09:16;6.40;;;4.80;;
45909;SDS011;31622;55.416;37.840;2023-06-22T14:11:42;8.55;;;4.80;;
45909;SDS011;31622;55.416;37.840;2023-06-22T14:14:07;5.80;;;4.78;;
45909;SDS011;31622;55.416;37.840;2023-06-22T14:16:33;6.70;;;4.25;;
45909;SDS011;31622;55.416;37.840;2023-06-22T14:18:59;6.07;;;4.32;;
45909;SDS011;31622;55.416;37.840;2023-06-22T14:21:25;6.00;;;4.15;;
45909;SDS011;31622;55.416;37.840;2023-06-22T14:23:51;8.02;;;4.70;;
45909;SDS011;31622;55.416;37.840;2023-06-22T14:26:17;5.85;;;3.65;;
45909;SDS011;31622;55.416;37.840;2023-06-22T14:28:45;6.35;;;3.97;;
45909;SDS011;31622;55.416;37.840;2023-06-22T14:31:17;7.45;;;4.40;;
45909;SDS011;31622;55.416;37.840;2023-06-22T14:33:46;4.68;;;3.88;;
45909;SDS011;31622;55.416;37.840;2023-06-22T14:36:13;6.28;;;3.72;;
45909;SDS011;31622;55.416;37.840;2023-06-22T14:38:39;6.72;;;4.38;;
45909;SDS011;31622;55.416;37.840;2023-06-22T14:41:05;7.30;;;4.35;;